Time;durP1;ratioP1;P1;durP2;ratioP2;P2;SDS_P1;SDS_P2;PMS_P1;PMS_P2;Temp;Humidity;BMP_temperature;BMP_pressure;BME280_temperature;BME280_humidity;BME280_pressure;Samples;Min_cycle;Max_cycle;Signal;HPM_P1;HPM_P2
2023/04/28 00:01:29;;;;;;;3.00;1.70;;;;;;;6.93;72.68;99632.43;106032;1254;60392;-73
2023/04/28 00:03:57;;;;;;;6.70;1.80;;;;;;;7.01;72.54;99638.98;106052;1257;74000;-74
2023/04/28 00:06:24;;;;;;;3.50;1.90;;;;;;;6.99;72.14;99642.83;106152;1254;70943;-76
2023/04/28 00:08:51;;;;;;;5.20;1.90;;;;;;;6.95;72.25;99646.17;105776;1254;75372;-75
2023/04/28 00:11:18;;;;;;;6.40;2.20;;;;;;;6.92;72.29;99639.79;106132;1254;60548;-74
2023/04/28 00:13:48;;;;;;;5.20;2.30;;;;;;;6.90;72.39;99637.84;105911;1253;61496;-74
2023/04/28 00:16:14;;;;;;;4.60;2.20;;;;;;;6.88;72.03;99639.80;105979;1254;72815;-73
2023/04/28 00:18:41;;;;;;;3.60;2.10;;;;;;;6.85;72.16;99640.98;105997;1254;70191;-74
2023/04/28 00:21:08;;;;;;;3.50;2.20;;;;;;;6.83;72.02;99642.93;105954;1256;73423;-73
2023/04/28 00:23:35;;;;;;;5.00;2.40;;;;;;;6.79;72.12;99645.06;106034;1254;60554;-72
2023/04/28 00:26:02;;;;;;;5.30;2.70;;;;;;;6.76;72.15;99647.30;105733;1254;61154;-75
2023/04/28 00:28:29;;;;;;;5.10;2.20;;;;;;;6.74;72.29;99642.53;105901;1254;74084;-74
2023/04/28 00:31:01;;;;;;;3.80;1.80;;;;;;;6.83;71.78;99647.83;106122;1254;70788;-75
2023/04/28 00:33:28;;;;;;;6.30;2.20;;;;;;;6.88;71.73;99648.44;105786;1254;71867;-74
2023/04/28 00:35:59;;;;;;;6.00;2.50;;;;;;;6.87;71.76;99650.50;105956;1254;60561;-73
2023/04/28 00:38:26;;;;;;;3.70;1.90;;;;;;;6.86;71.61;99654.29;106040;1254;60336;-74
2023/04/28 00:40:53;;;;;;;4.50;2.00;;;;;;;6.85;71.62;99652.59;105709;1259;75051;-73
2023/04/28 00:43:20;;;;;;;5.70;2.00;;;;;;;6.85;71.53;99658.40;105863;1253;70123;-77
2023/04/28 00:45:50;;;;;;;3.80;2.30;;;;;;;6.83;71.23;99661.77;105820;1254;73864;-74
2023/04/28 00:48:17;;;;;;;5.50;2.10;;;;;;;6.81;71.42;99662.29;105895;1254;60620;-75
2023/04/28 00:50:45;;;;;;;4.40;2.50;;;;;;;6.78;71.02;99662.44;105807;1254;60437;-75
2023/04/28 00:53:12;;;;;;;4.50;2.20;;;;;;;6.73;70.50;99666.96;106035;1254;73095;-74
2023/04/28 00:55:39;;;;;;;4.40;2.00;;;;;;;6.69;70.56;99666.94;105964;1259;69535;-75
2023/04/28 00:58:06;;;;;;;5.90;2.10;;;;;;;6.65;70.50;99671.08;105942;1257;73047;-74
2023/04/28 01:00:33;;;;;;;7.40;2.10;;;;;;;6.62;70.54;99670.81;105974;1253;60685;-72
2023/04/28 01:03:00;;;;;;;7.00;2.10;;;;;;;6.71;70.51;99676.48;106056;1252;60434;-74
2023/04/28 01:05:29;;;;;;;3.60;1.90;;;;;;;6.73;70.46;99680.69;106414;1254;74114;-81
2023/04/28 01:07:58;;;;;;;4.60;2.00;;;;;;;6.69;70.54;99685.63;106170;1254;71571;-77
2023/04/28 01:10:25;;;;;;;5.10;2.20;;;;;;;6.66;70.62;99691.52;106093;1256;71697;-78
2023/04/28 01:12:52;;;;;;;5.20;2.50;;;;;;;6.65;70.55;99694.30;105932;1253;61530;-78
2023/04/28 01:15:20;;;;;;;5.90;2.70;;;;;;;6.63;70.46;99693.23;106032;1257;61657;-80
2023/04/28 01:17:48;;;;;;;3.50;2.00;;;;;;;6.61;70.65;99689.90;106202;1254;73423;-80
2023/04/28 01:20:14;;;;;;;5.80;2.40;;;;;;;6.58;70.52;99693.14;106100;1254;69997;-80
2023/04/28 01:22:41;;;;;;;2.90;2.00;;;;;;;6.57;70.49;99695.23;106009;1256;70720;-82
2023/04/28 01:25:09;;;;;;;4.10;2.10;;;;;;;6.55;70.65;99694.14;106118;1254;60682;-81
2023/04/28 01:27:37;;;;;;;4.70;2.20;;;;;;;6.54;70.46;99693.89;106117;1257;60606;-82
2023/04/28 01:30:05;;;;;;;5.20;2.20;;;;;;;6.53;70.04;99698.20;106365;1253;73745;-83
2023/04/28 01:32:32;;;;;;;5.90;2.60;;;;;;;6.62;70.13;99692.98;106441;1254;70346;-83
2023/04/28 01:34:59;;;;;;;4.50;1.90;;;;;;;6.65;70.16;99696.16;106777;1254;72923;-83
2023/04/28 01:37:26;;;;;;;5.10;1.80;;;;;;;6.63;70.15;99698.30;106592;1257;60555;-81
2023/04/28 01:39:53;;;;;;;4.20;2.10;;;;;;;6.62;70.00;99700.73;107308;1253;60439;-81
2023/04/28 01:42:20;;;;;;;5.00;1.70;;;;;;;6.60;70.01;99700.01;106638;1254;72210;-81
2023/04/28 01:44:47;;;;;;;4.50;2.00;;;;;;;6.60;70.05;99703.54;107232;1255;68096;-78
2023/04/28 01:47:14;;;;;;;3.10;1.60;;;;;;;6.57;69.94;99702.95;106490;1260;71810;-80
2023/04/28 01:49:41;;;;;;;2.40;2.00;;;;;;;6.55;69.97;99701.38;106588;1254;60516;-78
2023/04/28 01:52:08;;;;;;;6.30;2.30;;;;;;;6.52;69.73;99704.13;106346;1259;60431;-79
2023/04/28 01:54:35;;;;;;;4.70;2.40;;;;;;;6.50;69.88;99703.39;106683;1253;73566;-80
2023/04/28 01:57:02;;;;;;;3.50;1.90;;;;;;;6.48;69.93;99699.02;106899;1254;71574;-81
2023/04/28 01:59:30;;;;;;;2.30;1.70;;;;;;;6.45;69.96;99691.34;108052;1253;72732;-80
2023/04/28 02:01:57;;;;;;;6.60;2.20;;;;;;;6.44;69.77;99689.36;108209;1258;61208;-78
2023/04/28 02:04:24;;;;;;;5.80;2.30;;;;;;;6.53;69.83;99688.70;106170;1254;61203;-79
2023/04/28 02:06:51;;;;;;;5.60;2.20;;;;;;;6.57;69.59;99685.83;106151;1254;74779;-79
2023/04/28 02:09:18;;;;;;;5.10;2.00;;;;;;;6.56;69.66;99687.76;106668;1254;70177;-80
2023/04/28 02:11:45;;;;;;;3.70;1.50;;;;;;;6.54;69.62;99693.04;106513;1254;73747;-79
2023/04/28 02:14:12;;;;;;;3.30;2.30;;;;;;;6.53;69.64;99695.60;106139;1259;60406;-81
2023/04/28 02:16:40;;;;;;;2.90;1.60;;;;;;;6.48;69.37;99698.83;106101;1256;61298;-79
2023/04/28 02:19:07;;;;;;;5.00;2.10;;;;;;;6.43;69.34;99708.12;106108;1254;72798;-77
2023/04/28 02:21:34;;;;;;;3.40;1.80;;;;;;;6.36;69.30;99710.71;106105;1254;71419;-78
2023/04/28 02:24:00;;;;;;;3.10;1.70;;;;;;;6.30;69.72;99713.86;105989;1257;71789;-81
2023/04/28 02:26:28;;;;;;;5.20;2.40;;;;;;;6.25;69.60;99712.44;105895;1254;60443;-78
2023/04/28 02:28:54;;;;;;;5.10;2.20;;;;;;;6.20;69.31;99712.02;105737;1254;61201;-77
2023/04/28 02:31:21;;;;;;;3.70;1.90;;;;;;;6.15;69.43;99716.65;105983;1257;73825;-77
2023/04/28 02:33:48;;;;;;;4.70;1.90;;;;;;;6.09;69.64;99719.30;106019;1253;70609;-78
2023/04/28 02:36:15;;;;;;;4.20;1.90;;;;;;;6.05;69.64;99712.13;105952;1259;72258;-73
2023/04/28 02:38:41;;;;;;;5.40;1.70;;;;;;;6.11;69.48;99714.58;106017;1258;60874;-77
2023/04/28 02:41:08;;;;;;;3.30;2.00;;;;;;;6.16;69.77;99715.33;105995;1256;60408;-75
2023/04/28 02:43:36;;;;;;;3.70;2.10;;;;;;;6.14;69.72;99714.44;105997;1254;72539;-77
2023/04/28 02:46:03;;;;;;;6.80;2.70;;;;;;;6.12;69.90;99714.09;106042;1259;70424;-76
2023/04/28 02:48:30;;;;;;;5.00;2.50;;;;;;;6.10;69.56;99711.30;105962;1254;72317;-79
2023/04/28 02:50:57;;;;;;;7.30;2.10;;;;;;;6.05;69.78;99712.60;105929;1257;60456;-78
2023/04/28 02:53:24;;;;;;;5.20;2.60;;;;;;;5.99;69.80;99711.22;106054;1253;60530;-80
2023/04/28 02:55:50;;;;;;;4.00;2.00;;;;;;;5.93;69.78;99716.15;106007;1255;72890;-74
2023/04/28 02:58:17;;;;;;;9.60;2.00;;;;;;;5.87;69.83;99720.16;106015;1255;69924;-76
2023/04/28 03:00:45;;;;;;;4.20;2.20;;;;;;;5.81;69.89;99722.31;106010;1254;72731;-77
2023/04/28 03:03:12;;;;;;;3.40;1.80;;;;;;;5.75;69.90;99723.95;106124;1257;60424;-78
2023/04/28 03:05:39;;;;;;;6.20;2.00;;;;;;;5.68;69.92;99730.33;105993;1254;60433;-77
2023/04/28 03:08:06;;;;;;;4.00;1.70;;;;;;;5.70;70.03;99731.36;106428;1254;72911;-74
2023/04/28 03:13:42;;;;;;;5.50;1.90;;;;;;;5.78;69.82;99741.91;103126;1286;604341;-75
2023/04/28 03:16:08;;;;;;;4.40;3.20;;;;;;;5.74;69.69;99755.48;105529;1265;59202;-74
2023/04/28 03:18:36;;;;;;;2.90;1.60;;;;;;;5.70;69.72;99753.36;105574;1263;59801;-76
2023/04/28 03:21:03;;;;;;;4.20;2.40;;;;;;;5.65;69.59;99760.95;105696;1260;72703;-76
2023/04/28 03:23:30;;;;;;;4.50;2.30;;;;;;;5.61;69.82;99766.45;106781;1257;69636;-75
2023/04/28 03:25:57;;;;;;;2.80;1.70;;;;;;;5.57;69.75;99767.20;105844;1257;186273;-76
2023/04/28 03:28:24;;;;;;;2.80;1.70;;;;;;;5.54;69.67;99771.69;105840;1260;59340;-73
2023/04/28 03:30:50;;;;;;;3.70;1.70;;;;;;;5.50;69.56;99775.84;105921;1257;59503;-80
2023/04/28 03:33:18;;;;;;;4.90;2.20;;;;;;;5.45;69.69;99781.34;106496;1257;72193;-74
2023/04/28 03:35:45;;;;;;;2.80;1.80;;;;;;;5.42;69.54;99784.99;107160;1251;70232;-74
2023/04/28 03:38:12;;;;;;;4.20;2.00;;;;;;;5.45;69.71;99785.61;106474;1257;71506;-73
2023/04/28 03:40:38;;;;;;;4.60;1.80;;;;;;;5.55;69.83;99789.84;106101;1255;61118;-76
2023/04/28 03:43:26;;;;;;;6.70;2.10;;;;;;;5.57;69.93;99793.70;105791;1253;60356;-74
2023/04/28 03:46:06;;;;;;;3.90;2.50;;;;;;;5.54;70.14;99799.02;106104;1253;71845;-76
2023/04/28 03:48:34;;;;;;;3.40;1.70;;;;;;;5.51;69.91;99802.25;106010;1253;70152;-74
2023/04/28 03:51:01;;;;;;;3.10;2.10;;;;;;;5.49;70.09;99801.77;106072;1255;72445;-78
2023/04/28 03:53:28;;;;;;;4.20;2.30;;;;;;;5.47;70.34;99807.17;106188;1251;60410;-76
2023/04/28 03:55:55;;;;;;;5.00;2.00;;;;;;;5.46;70.23;99808.00;106169;1252;61198;-78
2023/04/28 03:58:23;;;;;;;3.50;1.90;;;;;;;5.43;70.08;99807.73;105960;1253;74070;-76
2023/04/28 04:00:50;;;;;;;3.30;2.00;;;;;;;5.40;70.36;99808.50;106048;1253;69842;-75
2023/04/28 04:03:21;;;;;;;6.40;2.60;;;;;;;5.37;70.24;99813.65;106302;1250;70438;-78
2023/04/28 04:05:49;;;;;;;8.10;2.20;;;;;;;5.35;70.19;99813.32;106160;1252;60314;-76
2023/04/28 04:08:16;;;;;;;4.90;1.90;;;;;;;5.37;70.30;99816.17;106228;1255;60024;-77
2023/04/28 04:10:43;;;;;;;4.60;2.40;;;;;;;5.48;70.28;99810.64;105933;1258;73128;-76
2023/04/28 04:13:10;;;;;;;4.30;2.40;;;;;;;5.52;70.26;99815.54;106037;1253;69465;-78
2023/04/28 04:15:37;;;;;;;3.70;2.00;;;;;;;5.54;70.43;99816.65;106262;1253;73695;-77
2023/04/28 04:18:04;;;;;;;5.50;2.30;;;;;;;5.50;70.26;99812.40;106224;1253;59544;-77
2023/04/28 04:20:43;;;;;;;4.10;2.60;;;;;;;5.57;70.35;99817.60;105792;1253;60228;-75
2023/04/28 04:23:09;;;;;;;5.70;2.60;;;;;;;5.59;70.35;99820.08;107284;1252;73435;-76
2023/04/28 04:25:37;;;;;;;4.40;1.90;;;;;;;5.59;70.30;99820.79;108038;1253;70148;-79
2023/04/28 04:28:04;;;;;;;3.60;2.10;;;;;;;5.59;70.32;99822.53;106156;1253;73367;-79
2023/04/28 04:30:31;;;;;;;4.40;2.20;;;;;;;5.59;70.18;99822.70;106187;1252;60325;-74
2023/04/28 04:33:00;;;;;;;5.50;2.40;;;;;;;5.57;70.05;99825.11;106045;1258;61036;-76
2023/04/28 04:35:27;;;;;;;4.50;2.30;;;;;;;5.56;70.17;99830.15;105815;1253;72171;-75
2023/04/28 04:37:54;;;;;;;5.30;2.40;;;;;;;5.56;70.34;99832.48;105847;1258;70405;-75
2023/04/28 04:40:21;;;;;;;4.30;2.00;;;;;;;5.56;70.05;99834.71;105684;1260;71019;-75
2023/04/28 04:42:49;;;;;;;4.30;1.90;;;;;;;5.67;69.68;99833.02;106135;1251;61324;-78
2023/04/28 04:45:18;;;;;;;4.60;2.30;;;;;;;5.77;69.55;99835.36;106097;1253;61373;-72
2023/04/28 04:47:46;;;;;;;4.30;2.20;;;;;;;5.77;69.59;99832.23;106281;1253;72240;-73
2023/04/28 04:50:12;;;;;;;4.20;2.70;;;;;;;5.76;69.48;99829.30;106104;1253;69455;-77
2023/04/28 04:52:39;;;;;;;5.10;2.40;;;;;;;5.76;69.30;99829.84;105923;1253;73644;-77
2023/04/28 04:55:07;;;;;;;4.30;2.60;;;;;;;5.77;69.24;99828.12;106012;1251;59631;-77
2023/04/28 04:57:34;;;;;;;4.20;2.40;;;;;;;5.77;69.10;99830.05;106013;1251;60615;-77
2023/04/28 05:00:30;;;;;;;4.20;2.20;;;;;;;5.78;68.74;99835.29;106000;1251;74003;-77
2023/04/28 05:02:58;;;;;;;4.40;1.50;;;;;;;5.76;68.91;99836.45;105949;1253;70547;-78
2023/04/28 05:05:26;;;;;;;4.30;2.30;;;;;;;5.75;68.94;99834.09;106252;1251;73903;-79
2023/04/28 05:08:05;;;;;;;5.70;2.00;;;;;;;5.76;69.20;99838.31;106080;1253;59644;-75
2023/04/28 05:10:32;;;;;;;7.10;2.50;;;;;;;5.76;69.10;99838.75;105977;1253;59532;-74
2023/04/28 05:12:59;;;;;;;5.70;2.30;;;;;;;5.78;68.83;99839.14;105853;1253;71889;-76
2023/04/28 05:15:26;;;;;;;2.20;1.60;;;;;;;5.79;68.74;99841.27;105878;1251;70197;-76
2023/04/28 05:18:09;;;;;;;4.60;2.40;;;;;;;5.80;68.48;99840.88;105992;1253;72941;-77
2023/04/28 05:20:37;;;;;;;4.60;2.30;;;;;;;5.81;68.61;99843.05;106036;1253;59707;-77
2023/04/28 05:23:05;;;;;;;3.70;1.70;;;;;;;5.86;68.55;99844.55;106043;1253;61476;-78
2023/04/28 05:25:32;;;;;;;5.10;2.30;;;;;;;6.01;68.51;99844.14;106310;1253;74000;-75
2023/04/28 05:28:03;;;;;;;4.40;2.00;;;;;;;6.08;68.20;99847.54;106231;1258;69717;-73
2023/04/28 05:30:30;;;;;;;7.10;2.40;;;;;;;6.14;68.21;99846.52;106307;1253;72543;-77
2023/04/28 05:32:57;;;;;;;5.70;2.30;;;;;;;6.23;68.39;99845.73;105943;1259;59660;-74
2023/04/28 05:35:25;;;;;;;4.30;2.10;;;;;;;6.35;68.17;99848.01;105821;1257;60378;-71
2023/04/28 05:37:51;;;;;;;4.80;2.40;;;;;;;6.46;67.78;99842.63;105943;1252;72718;-76
2023/04/28 05:40:19;;;;;;;6.70;2.10;;;;;;;6.57;67.68;99847.07;105777;1251;71163;-73
2023/04/28 05:42:45;;;;;;;4.70;1.90;;;;;;;6.70;67.41;99841.13;105870;1254;72692;-70
2023/04/28 05:45:13;;;;;;;4.00;2.70;;;;;;;6.83;67.10;99838.47;106063;1250;61124;-74
2023/04/28 05:47:40;;;;;;;2.90;1.70;;;;;;;6.99;66.96;99839.57;106088;1251;60383;-73
2023/04/28 05:50:08;;;;;;;4.40;2.00;;;;;;;7.15;66.76;99839.96;105926;1257;74256;-75
2023/04/28 05:52:35;;;;;;;5.70;1.90;;;;;;;7.31;66.42;99840.98;106059;1253;69533;-76
2023/04/28 05:55:03;;;;;;;4.10;2.10;;;;;;;7.46;65.80;99841.44;106024;1253;71575;-75
2023/04/28 05:57:30;;;;;;;5.70;2.50;;;;;;;7.62;65.24;99839.23;105860;1253;59729;-72
2023/04/28 06:00:09;;;;;;;3.80;2.40;;;;;;;7.80;65.17;99835.57;105903;1253;59850;-73
2023/04/28 06:02:39;;;;;;;4.90;1.90;;;;;;;7.97;63.54;99838.02;105882;1251;73137;-74
2023/04/28 06:05:06;;;;;;;4.90;1.50;;;;;;;8.13;61.77;99830.95;105954;1253;70194;-71
2023/04/28 06:07:33;;;;;;;4.30;1.70;;;;;;;8.28;60.44;99834.41;105907;1253;73877;-74
2023/04/28 06:10:01;;;;;;;3.90;1.70;;;;;;;8.42;60.18;99832.04;105821;1251;59611;-73
2023/04/28 06:12:28;;;;;;;4.70;1.80;;;;;;;8.55;59.68;99829.85;105874;1253;59572;-73
2023/04/28 06:14:55;;;;;;;4.20;1.90;;;;;;;8.70;59.55;99828.61;105875;1256;73005;-72
2023/04/28 06:17:21;;;;;;;4.30;1.90;;;;;;;8.83;59.50;99830.61;106021;1256;68425;-72
2023/04/28 06:19:50;;;;;;;3.30;1.50;;;;;;;8.98;58.69;99832.66;106076;1251;71514;-73
2023/04/28 06:22:17;;;;;;;4.90;1.70;;;;;;;9.11;58.07;99830.78;105844;1253;60649;-73
2023/04/28 06:24:43;;;;;;;4.10;1.80;;;;;;;9.22;57.59;99829.98;105817;1253;60053;-69
2023/04/28 06:27:13;;;;;;;4.60;1.90;;;;;;;9.34;57.02;99833.77;106064;1254;72913;-73
2023/04/28 06:29:40;;;;;;;6.70;2.00;;;;;;;9.42;56.44;99832.71;105935;1251;71332;-74
2023/04/28 06:32:06;;;;;;;4.40;1.60;;;;;;;9.52;55.90;99830.86;105871;1251;72606;-75
2023/04/28 06:34:34;;;;;;;2.60;1.70;;;;;;;9.59;55.37;99833.80;105863;1253;60467;-73
2023/04/28 06:37:01;;;;;;;5.90;1.90;;;;;;;9.63;54.58;99835.72;105894;1257;60237;-71
2023/04/28 06:39:28;;;;;;;4.90;2.20;;;;;;;9.65;54.52;99842.38;106177;1253;73041;-72
2023/04/28 06:41:54;;;;;;;3.30;1.70;;;;;;;9.69;54.63;99848.02;106307;1253;70170;-70
2023/04/28 06:44:22;;;;;;;5.40;1.70;;;;;;;9.71;54.55;99843.55;106386;1253;72331;-69
2023/04/28 06:46:48;;;;;;;1.40;1.20;;;;;;;9.74;54.50;99849.42;105976;1251;60636;-72
2023/04/28 06:49:15;;;;;;;6.30;2.00;;;;;;;9.78;54.62;99846.16;105900;1251;61411;-74
2023/04/28 06:51:42;;;;;;;2.40;1.70;;;;;;;9.83;53.75;99846.17;105919;1256;72444;-73
2023/04/28 06:54:10;;;;;;;5.70;2.30;;;;;;;9.89;53.27;99852.14;105781;1253;70084;-75
2023/04/28 06:56:37;;;;;;;3.30;1.60;;;;;;;9.95;52.89;99854.15;105776;1260;72284;-75
2023/04/28 06:59:03;;;;;;;3.60;1.70;;;;;;;10.01;52.26;99852.36;106000;1254;60928;-73
2023/04/28 07:01:30;;;;;;;4.20;1.70;;;;;;;10.07;51.90;99857.42;106015;1252;59652;-74
2023/04/28 07:03:57;;;;;;;4.50;2.00;;;;;;;10.12;51.40;99847.39;106014;1253;72351;-73
2023/04/28 07:06:26;;;;;;;2.60;1.60;;;;;;;10.15;50.32;99852.73;106036;1251;71620;-74
2023/04/28 07:08:53;;;;;;;6.30;1.60;;;;;;;10.17;50.13;99854.10;105912;1251;72460;-75
2023/04/28 07:11:22;;;;;;;3.50;1.60;;;;;;;10.20;48.31;99857.33;105890;1253;60482;-75
2023/04/28 07:13:50;;;;;;;3.40;1.30;;;;;;;10.22;48.31;99854.67;106038;1255;60643;-72
2023/04/28 07:16:17;;;;;;;3.50;1.60;;;;;;;10.25;48.60;99861.20;105909;1252;72385;-75
2023/04/28 07:18:45;;;;;;;4.80;1.70;;;;;;;10.31;48.91;99861.51;106055;1254;70495;-76
2023/04/28 07:21:11;;;;;;;4.80;1.50;;;;;;;10.36;48.78;99864.48;105855;1255;71898;-76
2023/04/28 07:23:39;;;;;;;5.20;1.70;;;;;;;10.42;48.32;99867.38;105968;1252;60413;-75
2023/04/28 07:26:05;;;;;;;4.10;1.40;;;;;;;10.49;48.53;99868.46;106068;1251;60325;-74
2023/04/28 07:28:32;;;;;;;3.00;1.30;;;;;;;10.58;47.99;99872.64;105953;1257;74791;-74
2023/04/28 07:30:59;;;;;;;3.90;1.40;;;;;;;10.67;47.81;99869.16;106031;1251;70031;-72
2023/04/28 07:33:26;;;;;;;2.20;1.50;;;;;;;10.72;46.77;99875.31;105996;1252;70473;-75
2023/04/28 07:35:53;;;;;;;2.70;1.70;;;;;;;10.73;46.16;99872.96;105974;1256;61581;-75
2023/04/28 07:38:20;;;;;;;2.30;1.40;;;;;;;10.72;46.23;99873.21;105966;1257;60517;-72
2023/04/28 07:40:47;;;;;;;2.20;1.40;;;;;;;10.73;46.78;99865.84;105791;1253;72906;-71
2023/04/28 07:43:14;;;;;;;3.00;1.60;;;;;;;10.78;46.66;99869.02;105810;1253;71634;-72
2023/04/28 07:45:41;;;;;;;3.40;1.90;;;;;;;10.85;46.35;99873.86;105892;1253;72012;-73
2023/04/28 07:48:09;;;;;;;2.60;1.40;;;;;;;10.92;46.48;99866.27;105947;1256;61254;-74
2023/04/28 07:50:36;;;;;;;4.30;2.00;;;;;;;11.00;45.80;99872.55;106047;1254;61128;-73
2023/04/28 07:53:02;;;;;;;4.40;1.50;;;;;;;11.07;45.93;99872.27;105998;1254;71694;-71
2023/04/28 07:55:30;;;;;;;3.60;1.60;;;;;;;11.16;45.65;99874.98;105988;1258;69271;-72
2023/04/28 07:57:57;;;;;;;2.90;1.40;;;;;;;11.27;45.96;99873.30;106044;1250;71702;-72
2023/04/28 08:00:25;;;;;;;2.00;1.30;;;;;;;11.36;45.67;99866.73;106006;1251;60804;-74
2023/04/28 08:02:51;;;;;;;2.70;1.50;;;;;;;11.43;44.85;99862.83;105941;1256;60736;-74
2023/04/28 08:05:18;;;;;;;4.30;1.50;;;;;;;11.47;44.32;99865.17;106043;1254;73916;-71
2023/04/28 08:07:46;;;;;;;2.90;1.50;;;;;;;11.54;44.68;99865.13;106277;1251;69687;-75
2023/04/28 08:10:12;;;;;;;2.50;1.40;;;;;;;11.62;43.81;99878.10;106146;1254;71692;-74
2023/04/28 08:12:40;;;;;;;2.80;1.30;;;;;;;11.66;43.65;99876.79;106107;1253;60586;-71
2023/04/28 08:15:08;;;;;;;3.20;1.60;;;;;;;11.70;44.29;99877.44;105945;1257;60426;-74
2023/04/28 08:17:35;;;;;;;3.00;1.40;;;;;;;11.75;44.56;99871.27;106066;1252;74809;-73
2023/04/28 08:20:02;;;;;;;1.50;1.30;;;;;;;11.84;44.55;99874.79;105872;1258;69682;-75
2023/04/28 08:22:29;;;;;;;2.50;1.40;;;;;;;11.92;44.78;99868.33;105688;1253;73794;-74
2023/04/28 08:24:56;;;;;;;1.70;1.20;;;;;;;12.04;44.41;99863.30;105841;1251;60409;-73
2023/04/28 08:27:24;;;;;;;2.30;1.40;;;;;;;12.15;43.91;99873.00;105779;1253;60504;-75
2023/04/28 08:29:51;;;;;;;2.50;1.40;;;;;;;12.30;44.49;99872.35;106056;1252;74321;-71
2023/04/28 08:32:18;;;;;;;3.70;1.50;;;;;;;12.45;43.88;99872.79;105980;1254;71129;-73
2023/04/28 08:34:45;;;;;;;2.40;1.50;;;;;;;12.59;43.68;99876.55;105991;1253;72715;-74
2023/04/28 08:37:12;;;;;;;3.30;1.60;;;;;;;12.63;42.64;99871.45;105794;1253;61143;-73
2023/04/28 08:39:39;;;;;;;2.70;1.40;;;;;;;12.63;42.35;99875.76;106018;1253;60578;-75
2023/04/28 08:42:05;;;;;;;2.80;1.70;;;;;;;12.65;42.01;99879.70;105842;1257;74880;-75
2023/04/28 08:44:37;;;;;;;2.40;1.30;;;;;;;12.70;42.85;99871.91;105878;1255;70081;-74
2023/04/28 08:47:11;;;;;;;3.70;1.70;;;;;;;12.78;42.70;99883.37;105872;1253;71404;-72
2023/04/28 08:49:37;;;;;;;;;;;;;;;12.89;42.68;99887.81;105856;1253;60521;-74
2023/04/28 08:52:11;;;;;;;3.10;1.50;;;;;;;13.07;42.67;99876.98;105924;1251;60421;-75
2023/04/28 08:54:39;;;;;;;2.80;1.50;;;;;;;13.32;42.33;99882.73;106135;1255;73933;-75
2023/04/28 08:57:09;;;;;;;3.80;1.40;;;;;;;13.53;42.12;99882.26;106071;1255;69429;-71
2023/04/28 08:59:40;;;;;;;2.10;1.50;;;;;;;13.72;41.85;99873.06;105850;1253;72407;-71
2023/04/28 09:02:09;;;;;;;3.10;1.80;;;;;;;13.88;40.93;99869.54;106046;1253;61082;-70
2023/04/28 09:04:37;;;;;;;2.30;1.80;;;;;;;14.00;39.85;99866.77;105988;1257;61262;-72
2023/04/28 09:07:10;;;;;;;3.30;1.70;;;;;;;14.11;40.49;99860.45;106186;1251;74760;-70
2023/04/28 09:09:37;;;;;;;4.70;1.90;;;;;;;14.27;40.06;99861.81;106170;1254;70026;-69
2023/04/28 09:12:06;;;;;;;1.90;1.30;;;;;;;14.43;39.96;99868.52;106158;1252;71959;-72
2023/04/28 09:14:34;;;;;;;3.00;1.30;;;;;;;14.66;40.64;99875.27;105957;1253;61367;-69
2023/04/28 09:17:01;;;;;;;4.80;1.60;;;;;;;15.01;40.96;99867.67;106015;1257;60402;-69
2023/04/28 09:19:35;;;;;;;4.70;1.80;;;;;;;15.56;40.08;99864.29;106101;1255;74416;-71
2023/04/28 09:22:04;;;;;;;1.70;1.20;;;;;;;16.13;38.28;99866.98;106017;1253;69446;-71
2023/04/28 09:24:51;;;;;;;2.00;1.40;;;;;;;16.62;37.22;99865.86;105805;1252;72144;-71
2023/04/28 09:27:25;;;;;;;2.30;1.80;;;;;;;16.88;37.56;99874.58;105743;1257;60749;-72
2023/04/28 09:29:53;;;;;;;3.00;1.90;;;;;;;17.02;37.35;99872.96;105967;1253;61173;-71
2023/04/28 09:32:21;;;;;;;1.70;1.50;;;;;;;17.08;36.43;99873.30;106016;1253;73330;-73
2023/04/28 09:34:50;;;;;;;5.20;1.60;;;;;;;16.99;36.58;99885.91;106013;1252;71239;-72
2023/04/28 09:37:19;;;;;;;3.80;1.50;;;;;;;16.93;36.59;99882.69;105917;1253;73852;-70
2023/04/28 09:39:49;;;;;;;4.70;1.60;;;;;;;16.94;36.92;99872.98;106053;1251;60586;-71
2023/04/28 09:42:37;;;;;;;2.10;1.90;;;;;;;17.08;37.38;99867.56;106057;1251;60415;-72
2023/04/28 09:45:06;;;;;;;3.00;1.80;;;;;;;17.49;36.11;99856.14;106196;1251;73535;-70
2023/04/28 09:47:35;;;;;;;4.60;1.80;;;;;;;17.88;36.04;99848.25;106031;1253;71349;-72
2023/04/28 09:50:08;;;;;;;3.30;1.70;;;;;;;18.38;35.43;99845.20;105990;1255;73452;-73
2023/04/28 09:52:35;;;;;;;1.50;1.40;;;;;;;18.94;35.75;99851.05;105713;1253;61301;-71
2023/04/28 09:55:07;;;;;;;2.30;1.50;;;;;;;19.47;34.67;99855.04;105847;1253;60447;-73
2023/04/28 09:57:34;;;;;;;3.80;1.50;;;;;;;19.64;33.62;99854.70;105992;1253;71795;-68
2023/04/28 10:00:05;;;;;;;2.40;1.70;;;;;;;19.64;32.90;99864.45;105929;1253;71420;-71
2023/04/28 10:02:36;;;;;;;2.70;1.50;;;;;;;19.77;33.06;99851.69;105969;1258;73508;-68
2023/04/28 10:05:09;;;;;;;2.50;1.40;;;;;;;20.00;32.60;99856.76;106018;1253;60473;-71
2023/04/28 10:07:38;;;;;;;2.80;2.00;;;;;;;20.33;32.31;99855.02;106019;1252;60504;-72
2023/04/28 10:10:06;;;;;;;2.90;2.00;;;;;;;20.61;33.02;99850.02;105855;1253;73857;-70
2023/04/28 10:12:33;;;;;;;3.40;2.00;;;;;;;20.99;32.05;99856.77;105955;1258;71529;-72
2023/04/28 10:15:00;;;;;;;1.80;1.50;;;;;;;21.29;31.19;99860.66;105850;1253;71735;-67
2023/04/28 10:17:28;;;;;;;3.00;1.90;;;;;;;21.48;30.96;99853.05;105734;1253;60515;-67
2023/04/28 10:19:55;;;;;;;3.00;1.50;;;;;;;21.59;31.36;99847.86;105827;1253;61150;-68
2023/04/28 10:22:41;;;;;;;2.60;1.60;;;;;;;21.85;30.65;99851.55;105894;1257;75103;-67
2023/04/28 10:25:10;;;;;;;3.10;1.80;;;;;;;21.97;30.63;99850.41;105862;1253;70517;-68
2023/04/28 10:27:39;;;;;;;2.80;1.80;;;;;;;22.23;30.69;99846.63;105980;1253;73936;-69
2023/04/28 10:30:20;;;;;;;3.00;1.70;;;;;;;22.61;30.44;99843.64;106050;1255;60337;-68
2023/04/28 10:33:21;;;;;;;4.20;1.70;;;;;;;22.93;29.64;99848.39;105891;1252;61331;-71
2023/04/28 10:35:48;;;;;;;4.60;1.70;;;;;;;23.22;29.50;99849.86;105775;1253;73765;-67
2023/04/28 10:38:16;;;;;;;3.00;1.70;;;;;;;23.48;29.91;99853.02;105714;1253;69302;-69
2023/04/28 10:40:44;;;;;;;2.20;1.80;;;;;;;23.77;29.28;99853.39;105813;1256;73926;-69
2023/04/28 10:43:12;;;;;;;3.70;1.70;;;;;;;23.87;28.65;99854.23;105843;1256;60434;-70
2023/04/28 10:45:48;;;;;;;3.20;2.00;;;;;;;23.64;28.31;99849.96;105892;1254;61040;-69
2023/04/28 10:48:15;;;;;;;2.20;1.70;;;;;;;23.38;28.87;99854.49;105867;1253;74902;-69
2023/04/28 10:51:04;;;;;;;2.50;1.80;;;;;;;23.33;28.62;99846.95;105807;1257;70222;-70
2023/04/28 10:53:47;;;;;;;3.40;1.90;;;;;;;23.40;28.64;99847.35;105863;1251;73976;-69
2023/04/28 10:56:21;;;;;;;2.40;1.40;;;;;;;23.32;28.47;99849.77;105873;1251;61197;-67
2023/04/28 10:58:49;;;;;;;5.40;1.90;;;;;;;23.03;28.53;99847.58;106006;1257;60405;-69
2023/04/28 11:01:19;;;;;;;2.90;1.90;;;;;;;22.60;28.87;99849.37;106152;1251;72545;-68
2023/04/28 11:04:28;;;;;;;2.20;1.60;;;;;;;22.14;29.00;99851.02;105818;1253;70734;-65
2023/04/28 11:06:44;;;;;;;3.30;1.70;;;;;;;21.87;29.33;99859.23;105776;1254;71032;-69
2023/04/28 11:09:11;;;;;;;2.60;1.80;;;;;;;22.08;29.50;99852.14;105911;1251;60515;-67
2023/04/28 11:11:38;;;;;;;4.00;1.70;;;;;;;22.65;28.73;99846.30;105777;1253;60431;-67
2023/04/28 11:14:17;;;;;;;2.00;1.70;;;;;;;23.21;28.54;99852.79;105573;1253;72326;-68
2023/04/28 11:16:50;;;;;;;3.00;1.90;;;;;;;23.43;28.27;99850.19;105862;1253;70456;-71
2023/04/28 11:19:18;;;;;;;1.70;1.50;;;;;;;23.14;28.09;99848.39;106058;1254;72723;-68
2023/04/28 11:21:46;;;;;;;3.80;1.70;;;;;;;22.78;28.53;99850.42;105906;1254;61056;-67
2023/04/28 11:24:13;;;;;;;3.20;1.50;;;;;;;22.49;28.47;99849.17;105949;1257;60334;-69
2023/04/28 11:26:41;;;;;;;3.50;1.80;;;;;;;22.10;28.63;99846.70;106081;1254;73862;-65
2023/04/28 11:29:08;;;;;;;2.10;1.90;;;;;;;21.67;29.04;99842.33;105900;1251;70287;-69
2023/04/28 11:31:35;;;;;;;2.40;1.80;;;;;;;21.29;29.01;99843.77;105927;1257;71497;-68
2023/04/28 11:34:06;;;;;;;5.90;1.70;;;;;;;20.96;29.30;99845.34;106037;1256;60436;-67
2023/04/28 11:36:35;;;;;;;2.40;1.70;;;;;;;20.62;29.82;99853.62;106181;1252;61618;-66
2023/04/28 11:39:07;;;;;;;4.00;1.80;;;;;;;20.53;30.73;99847.77;105988;1251;73552;-69